createdAt,value
2022-08-21T00:04:48.159Z,101188.16
2022-08-21T00:09:57.603Z,101188.00
2022-08-21T00:14:59.852Z,101176.31
2022-08-21T00:20:02.598Z,101170.63
2022-08-21T00:25:05.968Z,101168.28
2022-08-21T00:30:08.538Z,101164.75
2022-08-21T00:35:13.425Z,101167.78
2022-08-21T00:40:18.351Z,101170.25
2022-08-21T00:45:20.140Z,101167.63
2022-08-21T00:50:23.700Z,101154.06
2022-08-21T00:55:25.613Z,101155.97
2022-08-21T01:00:32.007Z,101154.09
2022-08-21T01:05:33.639Z,101158.81
2022-08-21T01:10:36.669Z,101156.72
2022-08-21T01:15:45.053Z,101155.75
2022-08-21T01:21:07.096Z,101161.06
2022-08-21T01:26:09.307Z,101164.22
2022-08-21T01:31:14.556Z,101160.91
2022-08-21T01:36:16.327Z,101167.72
2022-08-21T01:41:17.904Z,101158.91
2022-08-21T01:46:19.998Z,101157.31
2022-08-21T01:51:21.647Z,101159.59
2022-08-21T01:56:23.506Z,101153.13
2022-08-21T02:01:25.407Z,101152.78
2022-08-21T02:06:28.106Z,101143.94
2022-08-21T02:11:29.967Z,101139.19
2022-08-21T02:16:31.616Z,101142.97
2022-08-21T02:21:34.796Z,101147.41
2022-08-21T02:26:36.366Z,101140.00
2022-08-21T02:31:37.876Z,101148.06
2022-08-21T02:36:39.338Z,101142.97
2022-08-21T02:41:40.852Z,101157.69
2022-08-21T02:46:42.348Z,101140.59
2022-08-21T02:51:44.185Z,101149.31
2022-08-21T02:56:45.788Z,101142.84
2022-08-21T03:01:47.441Z,101139.75
2022-08-21T03:06:49.347Z,101133.88
2022-08-21T03:11:52.272Z,101140.59
2022-08-21T03:16:53.811Z,101127.13
2022-08-21T03:21:55.292Z,101131.88
2022-08-21T03:26:56.823Z,101128.72
2022-08-21T03:31:58.516Z,101125.72
2022-08-21T03:36:59.997Z,101133.31
2022-08-21T03:42:02.049Z,101126.97
2022-08-21T03:47:03.879Z,101134.09
2022-08-21T03:52:05.914Z,101138.06
2022-08-21T03:57:07.529Z,101146.28
2022-08-21T04:02:09.267Z,101148.50
2022-08-21T04:07:10.989Z,101150.56
2022-08-21T04:12:12.584Z,101151.25
2022-08-21T04:17:14.124Z,101164.94
2022-08-21T04:22:17.222Z,101164.53
2022-08-21T04:27:19.023Z,101157.72
2022-08-21T04:32:24.789Z,101157.78
2022-08-21T04:37:26.413Z,101159.84
2022-08-21T04:42:29.114Z,101161.78
2022-08-21T04:47:52.176Z,101162.06
2022-08-21T04:52:52.600Z,101163.72
2022-08-21T04:57:55.533Z,101162.50
2022-08-21T05:03:00.304Z,101159.53
2022-08-21T05:08:03.415Z,101167.31
2022-08-21T05:13:07.952Z,101172.81
2022-08-21T05:18:09.779Z,101180.44
2022-08-21T05:23:13.483Z,101182.34
2022-08-21T05:28:15.108Z,101179.47
2022-08-21T05:33:16.769Z,101184.16
2022-08-21T05:38:20.551Z,101187.66
2022-08-21T05:43:22.388Z,101180.41
2022-08-21T05:48:25.317Z,101174.31
2022-08-21T05:53:27.244Z,101179.00
2022-08-21T05:58:28.954Z,101183.34
2022-08-21T06:03:34.998Z,101173.47
2022-08-21T06:08:37.388Z,101170.94
2022-08-21T06:13:39.890Z,101171.19
2022-08-21T06:18:41.996Z,101179.28
2022-08-21T06:23:43.532Z,101181.19
2022-08-21T06:28:45.136Z,101182.75
2022-08-21T06:33:47.359Z,101180.38
2022-08-21T06:38:51.721Z,101184.78
2022-08-21T06:43:54.020Z,101189.50
2022-08-21T06:48:56.134Z,101189.19
2022-08-21T06:53:59.451Z,101198.63
2022-08-21T06:59:01.118Z,101206.53
2022-08-21T07:04:02.942Z,101197.03
2022-08-21T07:09:04.695Z,101191.22
2022-08-21T07:14:06.241Z,101183.97
2022-08-21T07:19:07.751Z,101188.22
2022-08-21T07:24:09.815Z,101198.31
2022-08-21T07:29:11.384Z,101191.50
2022-08-21T07:34:14.188Z,101189.72
2022-08-21T07:39:15.727Z,101190.31
2022-08-21T07:44:17.873Z,101196.53
2022-08-21T07:49:20.658Z,101191.63
2022-08-21T07:54:33.338Z,101189.50
2022-08-21T07:59:35.500Z,101180.63
2022-08-21T08:04:37.063Z,101171.16
2022-08-21T08:09:52.053Z,101169.66
2022-08-21T08:14:53.516Z,101158.88
2022-08-21T08:19:55.244Z,101160.03
2022-08-21T08:24:57.768Z,101170.22
2022-08-21T08:29:59.299Z,101167.22
2022-08-21T08:35:00.878Z,101170.50
2022-08-21T08:40:04.600Z,101160.34
2022-08-21T08:45:17.481Z,101160.72
2022-08-21T08:50:26.268Z,101157.34
2022-08-21T08:55:41.049Z,101167.78
2022-08-21T09:00:53.312Z,101162.13
2022-08-21T09:06:19.572Z,101151.13
2022-08-21T09:11:39.875Z,101145.03
2022-08-21T09:17:00.968Z,101137.34
2022-08-21T09:22:30.249Z,101133.28
2022-08-21T09:27:32.372Z,101142.84
2022-08-21T09:32:37.421Z,101127.75
2022-08-21T09:37:58.996Z,101133.72
2022-08-21T09:43:07.263Z,101142.19
2022-08-21T09:48:10.161Z,101141.22
2022-08-21T09:53:35.427Z,101137.84
2022-08-21T09:58:39.468Z,101129.91
2022-08-21T10:03:41.148Z,101123.06
2022-08-21T10:08:42.781Z,101123.50
2022-08-21T10:13:57.133Z,101117.63
2022-08-21T10:19:43.786Z,101116.06
2022-08-21T10:24:56.830Z,101115.50
2022-08-21T10:30:04.553Z,101109.19
2022-08-21T10:35:22.934Z,101106.13
2022-08-21T10:40:49.723Z,101112.19
2022-08-21T10:45:54.490Z,101108.28
2022-08-21T10:51:18.958Z,101091.22
2022-08-21T10:56:35.260Z,101105.50
2022-08-21T11:01:53.892Z,101102.72
2022-08-21T11:07:07.126Z,101095.56
2022-08-21T11:12:34.664Z,101100.50
2022-08-21T11:17:48.461Z,101107.31
2022-08-21T11:23:11.752Z,101105.59
2022-08-21T11:28:58.530Z,101112.25
2022-08-21T11:34:06.019Z,101101.09
2022-08-21T11:39:13.990Z,101099.00
2022-08-21T11:44:37.501Z,101094.44
2022-08-21T11:50:02.683Z,101091.72
2022-08-21T11:55:22.006Z,101097.00
2022-08-21T12:00:36.916Z,101088.66
2022-08-21T12:05:44.844Z,101080.22
2022-08-21T12:11:11.529Z,101070.84
2022-08-21T12:16:16.597Z,101083.19
2022-08-21T12:21:27.975Z,101065.13
2022-08-21T12:26:56.921Z,101077.56
2022-08-21T12:32:02.362Z,101075.81
2022-08-21T12:37:15.019Z,101073.94
2022-08-21T12:42:23.982Z,101081.47
2022-08-21T12:47:34.148Z,101066.91
2022-08-21T12:53:06.544Z,101062.16
2022-08-21T12:58:24.940Z,101066.84
2022-08-21T13:03:27.060Z,101062.25
2022-08-21T13:08:29.076Z,101062.41
2022-08-21T13:13:31.386Z,101053.13
2022-08-21T13:18:52.302Z,101054.78
2022-08-21T13:23:55.913Z,101058.22
2022-08-21T13:29:08.198Z,101065.34
2022-08-21T13:34:11.721Z,101053.25
2022-08-21T13:39:17.968Z,101048.03
2022-08-21T13:44:23.029Z,101039.50
2022-08-21T13:49:34.260Z,101034.31
2022-08-21T13:54:41.107Z,101043.03
2022-08-21T13:59:42.837Z,101042.00
2022-08-21T14:04:55.228Z,101036.63
2022-08-21T14:09:57.007Z,101025.16
2022-08-21T14:15:02.913Z,101030.34
2022-08-21T14:20:09.644Z,101036.09
2022-08-21T14:25:15.832Z,101034.28
2022-08-21T14:30:28.873Z,101029.50
2022-08-21T14:35:30.664Z,101018.66
2022-08-21T14:40:34.196Z,101015.34
2022-08-21T14:45:37.499Z,101010.28
2022-08-21T14:50:39.527Z,101011.50
2022-08-21T14:56:00.160Z,101013.72
2022-08-21T15:01:04.682Z,101019.34
2022-08-21T15:06:07.584Z,101027.25
2022-08-21T15:11:41.701Z,101011.47
2022-08-21T15:16:42.801Z,101015.16
2022-08-21T15:21:44.433Z,101011.38
2022-08-21T15:26:46.449Z,101007.16
2022-08-21T15:32:04.105Z,101009.84
2022-08-21T15:37:08.791Z,101006.09
2022-08-21T15:42:12.647Z,101012.66
2022-08-21T15:47:18.089Z,100999.75
2022-08-21T15:52:22.359Z,101008.06
2022-08-21T15:57:25.205Z,101012.56
2022-08-21T16:02:31.118Z,101008.94
2022-08-21T16:07:32.641Z,101005.09
2022-08-21T16:12:38.948Z,101007.44
2022-08-21T16:17:45.248Z,101004.22
2022-08-21T16:22:47.243Z,101016.63
2022-08-21T16:27:52.617Z,101014.38
2022-08-21T16:32:59.712Z,101014.03
2022-08-21T16:38:01.572Z,101015.41
2022-08-21T16:43:03.964Z,101010.94
2022-08-21T16:48:09.572Z,101006.72
2022-08-21T16:53:11.219Z,101014.38
2022-08-21T16:58:34.742Z,101016.09
2022-08-21T17:03:42.583Z,101004.50
2022-08-21T17:08:44.751Z,101010.88
2022-08-21T17:13:46.314Z,101011.03
2022-08-21T17:18:47.824Z,101002.63
2022-08-21T17:23:53.622Z,101002.34
2022-08-21T17:28:55.275Z,100995.19
2022-08-21T17:33:57.019Z,101009.13
2022-08-21T17:38:59.234Z,101020.34
2022-08-21T17:44:06.221Z,101012.22
2022-08-21T17:49:09.010Z,101016.91
2022-08-21T17:54:10.679Z,101018.84
2022-08-21T17:59:12.780Z,101008.53
2022-08-21T18:04:14.787Z,101011.25
2022-08-21T18:09:18.320Z,101011.06
2022-08-21T18:14:25.068Z,101009.81
2022-08-21T18:19:27.033Z,101017.22
2022-08-21T18:24:28.556Z,101016.66
2022-08-21T18:29:30.113Z,101021.44
2022-08-21T18:34:35.614Z,101020.75
2022-08-21T18:39:37.879Z,101020.84
2022-08-21T18:44:43.884Z,101019.13
2022-08-21T18:49:45.430Z,101036.19
2022-08-21T18:54:46.999Z,101039.59
2022-08-21T18:59:51.394Z,101032.88
2022-08-21T19:04:53.525Z,101047.34
2022-08-21T19:10:24.414Z,101052.03
2022-08-21T19:15:22.566Z,101044.25
2022-08-21T19:20:36.333Z,101050.56
2022-08-21T19:25:41.894Z,101047.06
2022-08-21T19:30:51.150Z,101051.47
2022-08-21T19:35:53.324Z,101048.34
2022-08-21T19:40:55.127Z,101054.00
2022-08-21T19:45:58.427Z,101061.34
2022-08-21T19:50:59.933Z,101063.31
2022-08-21T19:56:01.602Z,101061.59
2022-08-21T20:01:11.451Z,101055.25
2022-08-21T20:06:18.741Z,101058.41
2022-08-21T20:11:27.327Z,101066.09
2022-08-21T20:16:30.097Z,101072.25
2022-08-21T20:21:44.356Z,101072.13
2022-08-21T20:26:49.250Z,101075.16
2022-08-21T20:31:51.282Z,101074.44
2022-08-21T20:36:53.310Z,101072.25
2022-08-21T20:41:55.513Z,101077.69
2022-08-21T20:46:58.507Z,101068.88
2022-08-21T20:52:00.887Z,101070.09
2022-08-21T20:57:24.469Z,101078.88
2022-08-21T21:02:59.569Z,101076.59
2022-08-21T21:08:07.807Z,101072.00
2022-08-21T21:13:38.197Z,101076.53
2022-08-21T21:18:55.026Z,101063.53
2022-08-21T21:24:04.836Z,101068.75
2022-08-21T21:29:38.846Z,101064.72
2022-08-21T21:34:46.470Z,101059.00
2022-08-21T21:40:15.960Z,101053.97
2022-08-21T21:45:28.322Z,101051.09
2022-08-21T21:51:12.061Z,101060.91
2022-08-21T21:56:29.493Z,101066.50
2022-08-21T22:01:54.092Z,101066.50
2022-08-21T22:07:19.671Z,101066.88
2022-08-21T22:18:25.621Z,101071.47
2022-08-21T22:23:31.995Z,101071.19
2022-08-21T22:28:39.259Z,101071.38
2022-08-21T22:33:41.721Z,101074.78
2022-08-21T22:38:44.402Z,101074.09
2022-08-21T22:44:03.903Z,101072.75
2022-08-21T22:49:11.813Z,101076.09
2022-08-21T22:54:23.768Z,101076.19
2022-08-21T22:59:31.188Z,101072.94
2022-08-21T23:04:33.761Z,101072.47
2022-08-21T23:09:47.060Z,101068.78
2022-08-21T23:14:54.679Z,101067.75
2022-08-21T23:20:23.145Z,101076.41
2022-08-21T23:25:41.370Z,101065.91
2022-08-21T23:30:50.514Z,101069.69
2022-08-21T23:36:37.172Z,101061.88
2022-08-21T23:41:47.301Z,101059.53
2022-08-21T23:47:11.684Z,101050.66
2022-08-21T23:53:01.254Z,101054.03
2022-08-21T23:58:19.129Z,101050.72
